Time;durP1;ratioP1;P1;durP2;ratioP2;P2;SDS_P1;SDS_P2;PMS_P1;PMS_P2;Temp;Humidity;BMP_temperature;BMP_pressure;BME280_temperature;BME280_humidity;BME280_pressure;Samples;Min_cycle;Max_cycle;Signal;HPM_P1;HPM_P2
2023/03/29 00:02:08;;;;;;;20.25;9.30;;;6.50;99.90;;;5.51;100.00;97712.28;5050585;28;20917;-75
2023/03/29 00:04:35;;;;;;;18.25;8.93;;;6.60;99.90;;;5.46;100.00;97710.31;5050845;28;20429;-75
2023/03/29 00:07:03;;;;;;;18.08;9.18;;;6.60;99.90;;;5.44;100.00;97707.88;5050631;28;20914;-75
2023/03/29 00:09:31;;;;;;;19.20;8.55;;;6.60;99.90;;;5.46;100.00;97699.81;5050595;28;20436;-75
2023/03/29 00:11:57;;;;;;;24.13;9.95;;;6.60;99.90;;;5.61;100.00;97700.31;5050361;28;20484;-75
2023/03/29 00:14:23;;;;;;;19.33;9.93;;;6.70;99.90;;;5.52;100.00;97704.19;5050296;28;21004;-75
2023/03/29 00:16:49;;;;;;;18.95;8.98;;;6.60;99.90;;;5.38;100.00;97703.47;5050415;28;20409;-75
2023/03/29 00:19:17;;;;;;;15.93;8.07;;;6.50;99.90;;;5.39;100.00;97693.78;5049795;28;21560;-75
2023/03/29 00:21:44;;;;;;;23.65;9.65;;;6.50;99.90;;;5.43;100.00;97687.88;5050089;28;20401;-75
2023/03/29 00:24:10;;;;;;;24.53;10.80;;;6.60;99.90;;;5.50;100.00;97684.41;5050425;28;20409;-75
2023/03/29 00:26:36;;;;;;;23.70;10.88;;;6.60;99.90;;;5.47;100.00;97690.91;5050279;28;20436;-75
2023/03/29 00:29:02;;;;;;;20.00;9.80;;;6.50;99.90;;;5.31;100.00;97680.91;5050394;28;20427;-75
2023/03/29 00:31:28;;;;;;;17.50;9.00;;;6.40;99.90;;;5.31;100.00;97675.66;5050016;28;20559;-75
2023/03/29 00:33:54;;;;;;;21.48;10.57;;;6.40;99.90;;;5.41;100.00;97687.28;5050480;28;20902;-75
2023/03/29 00:36:21;;;;;;;21.23;8.90;;;6.50;99.90;;;5.33;100.00;97676.25;5050244;28;20783;-75
2023/03/29 00:38:48;;;;;;;19.10;8.93;;;6.40;99.90;;;5.34;100.00;97672.59;5049864;28;20421;-75
2023/03/29 00:41:14;;;;;;;26.58;10.60;;;6.50;99.90;;;5.43;100.00;97674.75;5050093;28;20406;-75
2023/03/29 00:43:59;;;;;;;22.27;10.30;;;6.50;99.90;;;5.41;100.00;97668.91;5049767;28;20759;-75
2023/03/29 00:46:27;;;;;;;24.37;10.00;;;6.50;99.90;;;5.40;100.00;97661.28;5050190;28;20476;-75
2023/03/29 00:48:57;;;;;;;20.13;9.27;;;6.50;99.90;;;5.42;100.00;97669.72;5050496;28;20400;-75
2023/03/29 00:51:28;;;;;;;21.08;9.85;;;6.60;99.90;;;5.47;100.00;97672.53;5049933;28;20416;-75
2023/03/29 00:54:00;;;;;;;21.88;10.30;;;6.60;99.90;;;5.47;100.00;97666.47;5050262;28;20711;-75
2023/03/29 00:56:29;;;;;;;21.77;10.25;;;6.60;99.90;;;5.45;100.00;97664.88;5050170;28;20447;-75
2023/03/29 00:59:01;;;;;;;21.83;10.57;;;6.60;99.90;;;5.44;100.00;97652.75;5049996;28;20413;-75
2023/03/29 01:01:32;;;;;;;23.85;10.68;;;6.60;99.90;;;5.44;100.00;97654.56;5049868;28;20390;-75
2023/03/29 01:04:05;;;;;;;20.02;9.50;;;6.60;99.90;;;5.45;100.00;97657.00;5050196;28;20467;-75
2023/03/29 01:06:38;;;;;;;20.58;7.75;;;6.60;99.90;;;5.43;100.00;97655.59;5048642;28;20948;-75
2023/03/29 01:09:11;;;;;;;21.90;10.10;;;6.50;99.90;;;5.39;100.00;97655.22;5049984;28;20425;-75
2023/03/29 01:11:43;;;;;;;36.90;14.63;;;6.50;99.90;;;5.40;100.00;97642.91;5049821;28;20401;-75
2023/03/29 01:14:17;;;;;;;18.80;7.32;;;6.50;99.90;;;5.48;100.00;97636.59;5049986;28;20408;-75
2023/03/29 01:16:44;;;;;;;19.13;8.40;;;6.50;99.90;;;5.41;100.00;97619.03;5049958;28;20501;-75
2023/03/29 01:19:15;;;;;;;23.50;9.25;;;6.50;99.90;;;5.36;100.00;97626.75;5049819;28;20432;-75
2023/03/29 01:21:46;;;;;;;32.20;13.07;;;6.40;99.90;;;5.30;100.00;97624.16;5049580;28;20398;-75
2023/03/29 01:24:52;;;;;;;30.10;12.50;;;6.40;99.90;;;5.34;100.00;97627.97;5049850;28;20470;-75
2023/03/29 01:27:46;;;;;;;27.40;11.20;;;6.40;99.90;;;5.36;100.00;97620.69;5049600;28;20457;-75
2023/03/29 01:30:18;;;;;;;28.02;12.38;;;6.40;99.90;;;5.39;100.00;97617.66;5049778;28;20973;-74
2023/03/29 01:32:51;;;;;;;30.88;13.55;;;6.50;99.90;;;5.42;100.00;97614.59;5049637;28;20480;-75
2023/03/29 01:35:21;;;;;;;29.33;12.80;;;6.40;99.90;;;5.42;100.00;97615.41;5049778;28;20508;-75
2023/03/29 01:37:55;;;;;;;23.95;10.55;;;6.50;99.90;;;5.40;100.00;97608.78;5049565;28;20561;-75
2023/03/29 01:40:21;;;;;;;26.85;11.35;;;6.50;99.90;;;5.44;100.00;97605.50;5049715;28;20416;-75
2023/03/29 01:42:57;;;;;;;31.98;13.38;;;6.50;99.90;;;5.47;100.00;97595.59;5049404;28;20420;-75
2023/03/29 01:45:30;;;;;;;28.77;11.98;;;6.50;99.90;;;5.36;100.00;97591.81;5049824;28;20417;-75
2023/03/29 01:48:02;;;;;;;29.98;11.88;;;6.40;99.90;;;5.31;100.00;97587.22;5049802;28;20539;-75
2023/03/29 01:50:41;;;;;;;31.52;12.98;;;6.40;99.90;;;5.37;100.00;97586.38;5049794;28;20401;-75
2023/03/29 01:53:13;;;;;;;28.48;12.23;;;6.40;99.90;;;5.40;100.00;97582.53;5052787;28;20778;-74
2023/03/29 01:55:46;;;;;;;29.35;12.45;;;6.50;99.90;;;5.38;100.00;97577.47;5053219;28;20521;-75
2023/03/29 01:58:15;;;;;;;27.63;11.60;;;6.50;99.90;;;5.33;100.00;97560.75;5053219;28;20511;-75
2023/03/29 02:00:42;;;;;;;31.00;12.70;;;6.50;99.90;;;5.32;100.00;97562.59;5052984;28;20405;-75
2023/03/29 02:03:09;;;;;;;32.13;13.05;;;6.40;99.90;;;5.31;100.00;97554.91;5052863;28;20846;-75
2023/03/29 02:05:38;;;;;;;30.10;12.43;;;6.40;99.90;;;5.27;100.00;97553.72;5053002;28;20469;-74
2023/03/29 02:08:08;;;;;;;30.90;12.95;;;6.40;99.90;;;5.26;100.00;97546.88;5052913;28;20500;-75
2023/03/29 02:10:35;;;;;;;33.80;14.20;;;6.30;99.90;;;5.30;100.00;97535.75;5053029;28;20755;-74
2023/03/29 02:13:01;;;;;;;29.05;12.48;;;6.40;99.90;;;5.22;100.00;97533.38;5055682;28;20406;-74
2023/03/29 02:15:29;;;;;;;33.47;13.60;;;6.30;99.90;;;5.19;100.00;97548.75;5058340;28;20465;-74
2023/03/29 02:17:55;;;;;;;38.70;14.00;;;6.30;99.90;;;5.18;100.00;97534.84;5060592;28;20786;-74
2023/03/29 02:20:29;;;;;;;29.88;13.45;;;6.20;99.90;;;5.08;100.00;97537.13;5052485;28;20401;-75
2023/03/29 02:23:03;;;;;;;36.17;13.73;;;6.20;99.90;;;5.05;100.00;97535.69;5052482;28;20398;-74
2023/03/29 02:25:31;;;;;;;32.70;13.98;;;6.20;99.90;;;5.07;100.00;97536.31;5052560;28;20887;-75
2023/03/29 02:27:58;;;;;;;33.13;13.70;;;6.20;99.90;;;5.05;100.00;97538.31;5052646;28;20481;-75
2023/03/29 02:30:31;;;;;;;28.35;11.82;;;6.20;99.90;;;5.04;100.00;97541.97;5052473;28;20401;-75
2023/03/29 02:33:08;;;;;;;27.67;11.13;;;6.20;99.90;;;5.04;100.00;97536.72;5056688;28;20396;-75
2023/03/29 02:35:38;;;;;;;25.75;11.25;;;6.20;99.90;;;5.05;100.00;97548.81;5032367;28;20430;-74
2023/03/29 02:38:07;;;;;;;32.87;13.50;;;6.20;99.90;;;5.11;100.00;97549.00;5032410;28;20889;-75
2023/03/29 02:40:36;;;;;;;29.45;11.88;;;6.10;99.90;;;4.98;100.00;97528.91;5032550;28;20729;-75
2023/03/29 02:43:04;;;;;;;21.95;10.75;;;6.10;99.90;;;4.97;100.00;97529.91;5032275;28;20478;-74
2023/03/29 02:45:33;;;;;;;25.02;11.77;;;6.10;99.90;;;4.95;100.00;97522.28;5032323;28;20395;-74
2023/03/29 02:48:04;;;;;;;28.87;12.10;;;6.10;99.90;;;4.91;100.00;97515.03;5032324;28;20395;-75
2023/03/29 02:50:36;;;;;;;30.27;11.68;;;6.00;99.90;;;4.83;100.00;97505.59;5032260;28;20880;-75
2023/03/29 02:53:11;;;;;;;28.52;11.82;;;5.90;99.90;;;4.67;100.00;97495.59;5032057;28;20391;-75
2023/03/29 02:55:38;;;;;;;25.77;11.80;;;5.80;99.90;;;4.61;100.00;97494.63;5032149;28;20387;-75
2023/03/29 02:58:07;;;;;;;27.00;12.70;;;5.70;99.90;;;4.50;100.00;97489.25;5045503;28;20419;-75
2023/03/29 03:00:37;;;;;;;26.83;11.55;;;5.60;99.90;;;4.42;100.00;97481.63;5071936;28;20403;-75
2023/03/29 03:03:05;;;;;;;26.08;11.20;;;5.40;99.90;;;4.29;100.00;97474.63;5071487;28;21040;-75
2023/03/29 03:05:31;;;;;;;27.17;11.07;;;5.40;99.90;;;4.28;100.00;97476.44;5071771;28;20396;-75
2023/03/29 03:07:57;;;;;;;20.00;9.97;;;5.40;99.90;;;4.22;100.00;97466.78;5071916;28;20438;-75
2023/03/29 03:10:23;;;;;;;24.80;11.15;;;5.30;99.90;;;4.14;100.00;97468.84;5071794;28;20419;-75
2023/03/29 03:12:49;;;;;;;25.63;11.93;;;5.30;99.90;;;4.08;100.00;97477.53;5071505;28;20403;-75
2023/03/29 03:15:15;;;;;;;22.27;10.48;;;5.20;99.90;;;4.11;100.00;97482.38;5071851;28;20402;-75
2023/03/29 03:17:43;;;;;;;23.65;11.07;;;5.10;99.90;;;4.05;100.00;97477.97;5071500;28;20461;-75
2023/03/29 03:20:14;;;;;;;21.73;11.00;;;5.10;99.90;;;4.02;100.00;97486.22;5071521;28;20941;-75
2023/03/29 03:22:41;;;;;;;21.63;10.60;;;5.10;99.90;;;4.04;100.00;97485.03;5071251;28;20880;-75
2023/03/29 03:25:11;;;;;;;21.47;10.70;;;5.10;99.90;;;4.10;100.00;97486.81;5071454;28;20759;-75
2023/03/29 03:27:38;;;;;;;21.60;9.80;;;5.10;99.90;;;4.08;100.00;97488.00;5071325;28;20535;-75
2023/03/29 03:30:06;;;;;;;17.40;9.48;;;5.10;99.90;;;4.14;100.00;97489.78;5071482;28;20875;-75
2023/03/29 03:32:34;;;;;;;16.90;9.23;;;5.20;99.90;;;4.16;100.00;97482.53;5071079;28;20918;-75
2023/03/29 03:35:03;;;;;;;14.38;8.40;;;5.20;99.90;;;4.19;100.00;97480.31;5071337;28;20388;-73
2023/03/29 03:37:29;;;;;;;17.55;7.90;;;5.30;99.90;;;4.29;100.00;97479.84;5071082;28;20451;-76
2023/03/29 03:39:55;;;;;;;16.25;8.07;;;5.40;99.90;;;4.42;100.00;97481.63;5071272;28;20478;-75
2023/03/29 03:42:21;;;;;;;15.63;7.93;;;5.50;99.90;;;4.50;100.00;97479.56;5070889;28;20956;-74
2023/03/29 03:44:47;;;;;;;19.38;8.65;;;5.60;99.90;;;4.56;100.00;97480.53;5071002;28;20434;-73
2023/03/29 03:47:13;;;;;;;12.90;7.72;;;5.60;99.90;;;4.63;100.00;97473.44;5070933;28;20430;-75
2023/03/29 03:49:39;;;;;;;14.07;7.60;;;5.70;99.90;;;4.64;100.00;97478.47;5070879;28;20403;-73
2023/03/29 03:52:07;;;;;;;14.98;7.60;;;5.70;99.90;;;4.66;100.00;97473.03;5070653;28;20432;-75
2023/03/29 03:54:33;;;;;;;12.73;7.40;;;5.70;99.90;;;4.61;100.00;97483.31;5070918;28;20440;-73
2023/03/29 03:56:59;;;;;;;14.32;7.45;;;5.70;99.90;;;4.61;100.00;97483.31;5052910;28;20777;-74
2023/03/29 03:59:25;;;;;;;13.97;7.27;;;5.70;99.90;;;4.58;100.00;97487.19;5070721;28;20441;-74
2023/03/29 04:01:51;;;;;;;13.07;6.57;;;5.70;99.90;;;4.56;100.00;97480.53;5070478;28;20435;-74
2023/03/29 04:04:18;;;;;;;16.48;6.80;;;5.60;99.90;;;4.56;100.00;97489.22;5070739;28;20400;-77
2023/03/29 04:06:44;;;;;;;12.20;6.80;;;5.70;99.90;;;4.63;100.00;97492.59;5071173;28;20392;-79
2023/03/29 04:09:11;;;;;;;13.43;6.72;;;5.70;99.90;;;4.65;100.00;97497.63;5070860;28;20905;-75
2023/03/29 04:11:37;;;;;;;14.67;6.30;;;5.70;99.90;;;4.66;100.00;97496.63;5070411;28;20402;-75
2023/03/29 04:14:03;;;;;;;12.10;6.28;;;5.80;99.90;;;4.65;100.00;97495.81;5066769;28;20405;-76
2023/03/29 04:16:29;;;;;;;13.15;6.15;;;5.70;99.90;;;4.66;100.00;97500.03;5051609;28;20929;-75
2023/03/29 04:18:55;;;;;;;13.90;6.18;;;5.70;99.90;;;4.74;100.00;97496.34;5049741;28;20413;-75
2023/03/29 04:21:21;;;;;;;9.23;5.70;;;5.80;99.90;;;4.77;100.00;97498.56;5048980;28;20463;-74
2023/03/29 04:23:47;;;;;;;10.07;5.50;;;5.80;99.90;;;4.77;100.00;97498.56;5049762;28;20547;-74
2023/03/29 04:26:16;;;;;;;12.77;6.00;;;5.80;99.90;;;4.79;100.00;97493.94;5064441;22;20524;-72
2023/03/29 04:28:43;;;;;;;10.32;5.38;;;5.90;99.90;;;4.76;100.00;97499.56;5050480;28;20429;-72
2023/03/29 04:31:11;;;;;;;9.90;4.93;;;5.80;99.90;;;4.73;100.00;97497.41;5050350;28;20401;-72
2023/03/29 04:33:37;;;;;;;10.10;6.00;;;5.80;99.90;;;4.73;100.00;97496.59;5050177;28;20894;-72
2023/03/29 04:36:04;;;;;;;7.82;4.72;;;5.80;99.90;;;4.79;100.00;97496.53;5050233;28;20409;-72
2023/03/29 04:38:30;;;;;;;9.38;5.35;;;5.90;99.90;;;4.82;100.00;97500.53;5050182;28;20413;-72
2023/03/29 04:40:57;;;;;;;10.73;5.05;;;5.90;99.90;;;4.82;100.00;97498.72;5039934;28;20910;-72
2023/03/29 04:43:24;;;;;;;7.15;4.95;;;5.90;99.90;;;4.84;100.00;97499.31;5037902;28;20757;-73
2023/03/29 04:45:50;;;;;;;7.97;5.13;;;5.90;99.90;;;4.88;100.00;97504.97;5038499;28;20408;-72
2023/03/29 04:48:16;;;;;;;7.53;5.10;;;6.00;99.90;;;4.91;100.00;97494.84;5043139;28;20394;-73
2023/03/29 04:50:45;;;;;;;8.07;4.97;;;6.00;99.90;;;4.91;100.00;97497.47;5049930;28;20893;-73
2023/03/29 04:53:11;;;;;;;10.23;5.22;;;6.00;99.90;;;4.91;100.00;97496.66;5037993;28;20750;-74
2023/03/29 04:55:36;;;;;;;9.82;4.78;;;6.00;99.90;;;4.90;100.00;97498.47;5030305;28;20460;-74
2023/03/29 04:58:03;;;;;;;8.43;5.30;;;6.00;99.90;;;4.91;100.00;97492.22;5030117;28;20946;-74
2023/03/29 05:00:30;;;;;;;12.23;5.22;;;6.00;99.90;;;4.94;100.00;97493.63;5030237;28;20407;-72
2023/03/29 05:02:56;;;;;;;9.60;4.75;;;6.00;99.90;;;4.94;100.00;97494.44;5029853;28;20403;-73
2023/03/29 05:05:23;;;;;;;7.05;4.47;;;6.00;99.90;;;4.93;100.00;97492.81;5029750;28;20421;-72
2023/03/29 05:07:49;;;;;;;10.02;4.65;;;6.00;99.90;;;4.93;100.00;97492.00;5029745;28;20430;-73
2023/03/29 05:10:16;;;;;;;7.45;4.38;;;6.00;99.90;;;4.94;100.00;97491.00;5034216;28;20404;-73
2023/03/29 05:12:42;;;;;;;7.75;4.25;;;6.00;99.90;;;4.94;100.00;97491.00;5049484;28;20397;-73
2023/03/29 05:15:09;;;;;;;7.60;4.40;;;6.00;99.90;;;4.96;100.00;97496.84;5049603;28;20761;-73
2023/03/29 05:17:36;;;;;;;8.73;4.88;;;6.00;99.90;;;4.98;100.00;97490.34;5049482;28;20504;-75
2023/03/29 05:20:08;;;;;;;10.38;4.75;;;6.00;99.90;;;5.02;100.00;97498.63;5049820;28;20774;-75
2023/03/29 05:22:35;;;;;;;7.50;4.68;;;6.10;99.90;;;5.06;100.00;97499.78;5049471;28;20390;-74
2023/03/29 05:25:01;;;;;;;7.18;4.47;;;6.10;99.90;;;5.09;100.00;97503.81;5050073;28;20402;-73
2023/03/29 05:27:27;;;;;;;11.07;4.85;;;6.10;99.90;;;5.13;100.00;97499.72;5052200;28;20811;-73
2023/03/29 05:29:53;;;;;;;7.28;4.45;;;6.20;99.90;;;5.17;100.00;97493.06;5053620;28;20414;-73
2023/03/29 05:32:19;;;;;;;7.40;4.23;;;6.20;99.90;;;5.21;100.00;97499.47;5053236;28;20433;-73
2023/03/29 05:34:46;;;;;;;7.65;4.50;;;6.30;99.90;;;5.20;100.00;97497.84;5053545;28;20405;-73
2023/03/29 05:37:12;;;;;;;10.30;4.15;;;6.20;99.90;;;5.19;100.00;97497.06;5053447;28;20889;-71
2023/03/29 05:39:38;;;;;;;7.28;4.38;;;6.20;99.90;;;5.20;100.00;97501.28;5052292;28;20402;-72
2023/03/29 05:42:05;;;;;;;6.70;4.10;;;6.20;99.90;;;5.26;100.00;97489.94;5053143;28;20484;-72
2023/03/29 05:44:31;;;;;;;6.90;4.43;;;6.30;99.90;;;5.34;100.00;97491.47;5053323;28;20397;-73
2023/03/29 05:46:57;;;;;;;7.60;4.00;;;6.40;99.90;;;5.38;100.00;97493.47;5053185;28;20408;-73
2023/03/29 05:49:23;;;;;;;5.95;3.75;;;6.40;99.90;;;5.42;100.00;97491.22;5052216;28;20488;-72
2023/03/29 05:51:51;;;;;;;9.35;3.97;;;6.50;99.90;;;5.43;100.00;97493.63;5052850;28;20405;-73
2023/03/29 05:54:17;;;;;;;7.32;3.90;;;6.50;99.90;;;5.39;100.00;97495.09;5045155;28;20407;-73
2023/03/29 05:56:42;;;;;;;6.55;3.92;;;6.40;99.90;;;5.45;100.00;97493.41;5033045;28;20430;-73
2023/03/29 05:59:08;;;;;;;7.83;3.90;;;6.50;99.90;;;5.44;100.00;97497.06;5032909;28;20506;-73
2023/03/29 06:01:35;;;;;;;5.47;3.50;;;6.50;99.90;;;5.46;100.00;97495.03;5032213;28;20399;-73
2023/03/29 06:04:02;;;;;;;5.95;3.70;;;6.50;99.90;;;5.51;100.00;97497.81;5032979;28;20408;-73
2023/03/29 06:06:28;;;;;;;7.70;3.60;;;6.50;99.90;;;5.58;100.00;97495.91;5032904;28;20461;-73
2023/03/29 06:08:55;;;;;;;6.03;3.63;;;6.60;99.90;;;5.65;100.00;97498.47;5032735;28;20799;-73
2023/03/29 06:11:23;;;;;;;5.05;3.42;;;6.70;99.90;;;5.70;100.00;97498.66;5032728;28;20403;-73
2023/03/29 06:13:48;;;;;;;5.32;3.50;;;6.70;99.90;;;5.63;100.00;97490.84;5031230;28;20421;-73
2023/03/29 06:16:15;;;;;;;5.18;3.20;;;6.60;99.90;;;5.67;100.00;97494.63;5032680;28;20403;-72
2023/03/29 06:18:41;;;;;;;5.90;3.10;;;6.60;99.90;;;5.71;100.00;97502.88;5032830;28;20419;-73
2023/03/29 06:21:08;;;;;;;5.10;3.25;;;6.70;99.90;;;5.85;100.00;97499.09;5032638;28;20394;-73
2023/03/29 06:23:35;;;;;;;6.07;3.28;;;6.80;99.90;;;5.93;100.00;97496.22;5032552;28;20482;-73
2023/03/29 06:26:02;;;;;;;4.20;3.00;;;6.90;99.90;;;5.97;100.00;97488.69;5032609;28;20427;-73
2023/03/29 06:28:28;;;;;;;5.43;3.15;;;6.90;99.90;;;6.24;100.00;97500.50;5032675;28;20438;-72
2023/03/29 06:31:00;;;;;;;4.35;3.28;;;7.10;99.90;;;6.38;100.00;97495.91;5032454;28;20524;-73
2023/03/29 06:33:27;;;;;;;3.72;2.75;;;7.30;99.90;;;6.47;100.00;97499.81;5032401;28;20400;-73
2023/03/29 06:35:53;;;;;;;4.68;3.00;;;7.40;99.90;;;6.55;100.00;97500.31;5032453;28;20529;-73
2023/03/29 06:38:19;;;;;;;6.75;3.00;;;7.50;99.90;;;6.60;100.00;97491.78;5031644;28;20415;-73
2023/03/29 06:40:47;;;;;;;3.88;2.63;;;7.50;99.90;;;6.69;100.00;97497.53;5031097;28;20441;-72
2023/03/29 06:43:14;;;;;;;3.65;2.78;;;7.60;99.90;;;6.75;100.00;97501.91;5032227;28;20859;-72
2023/03/29 06:45:40;;;;;;;4.85;2.90;;;7.70;99.90;;;6.51;100.00;97511.50;5032372;28;20549;-72
2023/03/29 06:48:06;;;;;;;5.13;2.80;;;7.50;99.90;;;6.56;100.00;97509.81;5032158;28;20407;-73
2023/03/29 06:50:33;;;;;;;5.60;2.58;;;7.50;99.90;;;6.60;100.00;97512.81;5032249;28;20411;-72
2023/03/29 06:52:59;;;;;;;3.85;2.30;;;7.50;99.90;;;6.77;100.00;97520.88;5032022;28;20407;-73
2023/03/29 06:55:26;;;;;;;3.70;2.27;;;7.60;99.90;;;6.76;100.00;97522.72;5032092;28;20950;-73
2023/03/29 06:57:53;;;;;;;3.40;2.20;;;7.70;99.90;;;6.93;100.00;97520.25;5031984;28;20975;-73
2023/03/29 07:00:34;;;;;;;5.45;2.35;;;7.80;99.90;;;6.95;100.00;97532.16;5032089;28;20455;-72
2023/03/29 07:03:05;;;;;;;5.27;2.50;;;7.90;99.90;;;7.21;100.00;97530.97;5045580;28;20717;-74
2023/03/29 07:05:32;;;;;;;7.03;2.83;;;8.10;99.90;;;7.33;100.00;97533.63;5039878;28;20414;-73
2023/03/29 07:08:12;;;;;;;3.55;2.50;;;8.20;99.90;;;7.49;100.00;97535.59;5050783;28;20878;-72
2023/03/29 07:10:40;;;;;;;4.13;2.30;;;8.40;99.90;;;7.61;100.00;97538.22;5051542;28;20406;-73
2023/03/29 07:13:11;;;;;;;4.35;2.40;;;8.50;99.90;;;7.60;100.00;97545.34;5044968;28;20544;-73
2023/03/29 07:15:39;;;;;;;3.15;2.10;;;8.50;99.90;;;7.62;100.00;97540.66;5031716;28;20482;-73
2023/03/29 07:18:06;;;;;;;3.72;2.25;;;8.50;99.90;;;7.64;100.00;97532.53;5031202;28;20419;-73
2023/03/29 07:20:32;;;;;;;2.80;2.20;;;8.50;99.90;;;7.67;100.00;97539.94;5031697;28;20395;-73
2023/03/29 07:22:59;;;;;;;4.80;2.20;;;8.60;99.90;;;7.72;100.00;97537.44;5031246;28;20756;-73
2023/03/29 07:25:26;;;;;;;3.20;2.00;;;8.60;99.90;;;7.77;100.00;97532.28;5031581;28;20903;-73
2023/03/29 07:27:52;;;;;;;3.00;2.20;;;8.60;99.90;;;7.83;100.00;97539.28;5044980;28;20428;-73
2023/03/29 07:30:22;;;;;;;3.47;2.10;;;8.70;99.90;;;7.91;100.00;97540.75;5044013;28;20783;-73
2023/03/29 07:32:51;;;;;;;2.50;2.00;;;8.80;99.90;;;8.00;100.00;97540.19;5034669;28;20446;-72
2023/03/29 07:35:17;;;;;;;3.33;1.90;;;8.90;99.90;;;8.13;100.00;97552.31;5041568;28;20399;-72
2023/03/29 07:37:45;;;;;;;4.00;2.22;;;9.00;99.90;;;8.19;100.00;97551.41;5042057;28;20909;-72
2023/03/29 07:40:17;;;;;;;3.67;2.30;;;9.10;99.90;;;8.13;100.00;97561.03;5041102;28;20412;-72
2023/03/29 07:42:44;;;;;;;6.97;2.88;;;9.00;99.90;;;8.30;100.00;97557.69;5041779;28;20415;-72
2023/03/29 07:45:13;;;;;;;5.63;2.30;;;9.20;99.90;;;8.32;100.00;97563.56;5039134;28;20770;-72
2023/03/29 07:47:39;;;;;;;4.50;2.42;;;9.20;99.90;;;8.43;100.00;97568.81;5041679;28;20481;-73
2023/03/29 07:50:08;;;;;;;2.88;2.00;;;9.30;99.90;;;8.49;100.00;97562.59;5038932;28;20892;-72
2023/03/29 07:52:37;;;;;;;4.63;2.30;;;9.40;99.90;;;8.53;100.00;97566.41;5037862;28;20755;-72
2023/03/29 07:55:03;;;;;;;3.38;1.98;;;9.40;99.90;;;8.61;100.00;97565.22;5040783;28;20397;-72
2023/03/29 07:57:29;;;;;;;4.97;2.20;;;9.50;99.90;;;8.68;100.00;97575.66;5037482;28;20461;-73
2023/03/29 07:59:55;;;;;;;2.95;2.30;;;9.50;99.90;;;8.72;100.00;97569.66;5039373;28;20399;-73
2023/03/29 08:02:21;;;;;;;2.78;2.28;;;9.60;99.90;;;8.81;100.00;97567.44;5040594;28;20405;-73
2023/03/29 08:04:47;;;;;;;5.27;2.10;;;9.60;99.90;;;8.90;100.00;97564.22;5038416;28;20979;-73
2023/03/29 08:07:18;;;;;;;4.25;2.03;;;9.70;99.90;;;9.03;100.00;97562.31;5049894;28;20759;-72
2023/03/29 08:09:44;;;;;;;2.80;2.30;;;9.80;99.90;;;9.14;100.00;97559.63;5050296;28;20413;-72
2023/03/29 08:12:10;;;;;;;2.40;2.20;;;10.00;99.90;;;9.24;100.00;97561.66;5050355;28;20401;-73
2023/03/29 08:14:37;;;;;;;3.90;2.67;;;10.00;99.90;;;9.36;100.00;97561.59;5050476;28;20811;-72
2023/03/29 08:17:03;;;;;;;4.90;2.67;;;10.20;99.90;;;9.26;100.00;97555.09;5050528;28;20450;-72
2023/03/29 08:19:30;;;;;;;4.45;2.38;;;10.10;99.90;;;9.34;100.00;97556.53;5050307;28;20902;-73
2023/03/29 08:21:56;;;;;;;5.00;2.28;;;10.20;99.90;;;9.34;100.00;97564.47;5050269;28;20409;-72
2023/03/29 08:24:23;;;;;;;5.43;2.65;;;10.20;99.90;;;9.41;100.00;97561.66;5049925;28;20400;-72
2023/03/29 08:26:49;;;;;;;5.15;2.47;;;10.30;99.90;;;9.15;100.00;97563.06;5034623;28;20418;-72
2023/03/29 08:29:15;;;;;;;4.55;2.28;;;10.00;99.90;;;9.01;100.00;97556.50;5029195;28;20453;-72
2023/03/29 08:31:41;;;;;;;6.20;2.55;;;9.80;99.90;;;8.80;100.00;97560.56;5028607;28;20461;-72
2023/03/29 08:34:07;;;;;;;4.00;2.53;;;9.70;99.90;;;8.90;100.00;97553.66;5029979;28;20409;-72
2023/03/29 08:36:33;;;;;;;5.70;2.70;;;9.70;99.90;;;8.77;100.00;97547.84;5030382;28;20958;-72
2023/03/29 08:39:01;;;;;;;5.68;2.35;;;9.70;99.90;;;8.83;100.00;97550.34;5030413;28;20443;-72
2023/03/29 08:41:46;;;;;;;4.95;2.45;;;9.70;99.90;;;8.89;100.00;97559.16;5028749;28;20761;-72
2023/03/29 08:44:41;;;;;;;8.35;2.55;;;9.80;99.90;;;8.92;100.00;97556.06;5030264;28;20540;-72
2023/03/29 08:47:17;;;;;;;4.35;2.08;;;9.80;99.90;;;9.03;100.00;97565.75;5030167;28;20399;-73
2023/03/29 08:49:49;;;;;;;3.05;2.25;;;9.90;99.90;;;9.20;100.00;97560.50;5030271;28;20403;-73
2023/03/29 08:52:22;;;;;;;3.13;2.13;;;10.10;99.90;;;9.29;100.00;97556.47;5029947;28;20477;-72
2023/03/29 08:54:51;;;;;;;4.40;2.22;;;10.10;99.90;;;9.30;100.00;97558.06;5030174;28;20395;-73
2023/03/29 08:57:25;;;;;;;5.40;2.20;;;10.10;99.90;;;9.34;100.00;97556.53;5029808;28;20398;-73
2023/03/29 08:59:55;;;;;;;5.95;2.13;;;10.10;99.90;;;9.35;100.00;97544.94;5030106;28;20419;-73
2023/03/29 09:02:24;;;;;;;3.72;2.20;;;10.20;99.90;;;9.37;100.00;97550.78;5034093;28;20429;-73
2023/03/29 09:04:56;;;;;;;6.47;2.28;;;10.20;99.90;;;9.44;100.00;97545.34;5034194;28;20403;-73
2023/03/29 09:07:22;;;;;;;2.95;1.92;;;10.30;99.90;;;9.61;100.00;97541.66;5034184;28;20494;-73
2023/03/29 09:09:49;;;;;;;4.65;2.20;;;10.40;99.90;;;9.57;100.00;97537.09;5033973;28;20399;-73
2023/03/29 09:12:31;;;;;;;4.35;2.40;;;10.40;99.90;;;9.67;100.00;97530.13;5033704;28;20395;-73
2023/03/29 09:15:09;;;;;;;3.83;2.25;;;10.50;99.90;;;9.91;100.00;97527.31;5034055;28;20429;-73
2023/03/29 09:17:49;;;;;;;6.55;2.38;;;10.70;99.90;;;10.05;100.00;97528.56;5033781;28;20403;-73
2023/03/29 09:20:29;;;;;;;3.77;1.97;;;10.80;99.90;;;10.06;100.00;97520.38;5033870;28;20395;-73
2023/03/29 09:23:13;;;;;;;4.40;2.10;;;10.90;99.90;;;10.28;100.00;97517.78;5033607;28;20445;-73
2023/03/29 09:25:54;;;;;;;3.58;1.90;;;11.10;99.90;;;10.42;100.00;97512.94;5034017;28;20502;-73
2023/03/29 09:28:31;;;;;;;5.53;2.43;;;11.20;99.90;;;10.46;100.00;97514.81;5033800;28;20391;-73
2023/03/29 09:31:03;;;;;;;6.18;2.38;;;11.20;99.90;;;10.80;100.00;97512.03;5033671;28;20395;-73
2023/03/29 09:33:41;;;;;;;5.65;2.25;;;11.50;99.90;;;11.15;100.00;97511.56;5033487;28;20959;-73
2023/03/29 09:36:14;;;;;;;6.22;2.05;;;11.80;99.90;;;10.83;100.00;97519.47;5033507;28;20453;-73
2023/03/29 09:38:45;;;;;;;5.50;2.03;;;11.70;99.90;;;10.74;100.00;97516.47;5033648;28;20411;-72
2023/03/29 09:41:21;;;;;;;3.80;2.10;;;11.50;99.90;;;10.95;100.00;97506.88;5033303;28;20531;-73
2023/03/29 09:43:51;;;;;;;5.40;2.35;;;11.70;99.90;;;11.02;100.00;97510.13;5033229;28;20395;-73
2023/03/29 09:46:23;;;;;;;6.03;2.22;;;11.80;99.90;;;11.11;100.00;97510.50;5033298;28;20402;-73
2023/03/29 09:48:52;;;;;;;3.87;2.00;;;11.90;99.90;;;11.14;100.00;97504.66;5033335;28;20402;-73
2023/03/29 09:51:22;;;;;;;5.18;2.35;;;11.90;99.90;;;11.48;100.00;97505.22;5033030;28;20884;-73
2023/03/29 09:53:49;;;;;;;8.15;2.13;;;12.20;99.90;;;11.45;100.00;97511.84;5033184;28;20403;-73
2023/03/29 09:56:15;;;;;;;4.47;1.85;;;12.30;96.90;;;11.55;100.00;97500.50;5033132;28;20499;-73
2023/03/29 09:58:43;;;;;;;5.18;1.98;;;12.40;95.90;;;12.05;100.00;97508.03;5033249;28;20421;-73
2023/03/29 10:01:16;;;;;;;2.85;1.65;;;12.60;99.90;;;11.97;100.00;97504.00;5033045;28;20411;-73
2023/03/29 10:03:47;;;;;;;4.57;2.17;;;12.70;99.50;;;12.01;100.00;97515.72;5033111;28;20696;-73
2023/03/29 10:06:14;;;;;;;6.57;2.08;;;12.70;99.50;;;11.87;94.70;97514.56;5033156;28;20415;-73
2023/03/29 10:08:46;;;;;;;3.27;1.90;;;12.60;86.00;;;12.18;100.00;97507.56;5033026;28;20497;-74
2023/03/29 10:11:20;;;;;;;3.95;1.98;;;12.90;99.90;;;12.31;100.00;97503.66;5032613;28;20437;-74
2023/03/29 10:13:50;;;;;;;4.53;1.85;;;13.00;93.80;;;12.83;100.00;97505.41;5032167;28;20406;-74
2023/03/29 10:16:20;;;;;;;3.88;1.88;;;13.40;97.90;;;13.11;100.00;97496.97;5032768;28;20403;-73
2023/03/29 10:18:48;;;;;;;4.55;2.00;;;13.80;95.90;;;13.28;100.00;97497.56;5032772;28;20419;-74
2023/03/29 10:21:20;;;;;;;4.03;2.07;;;14.00;99.90;;;13.72;100.00;97494.34;5032690;28;20411;-74
2023/03/29 10:23:48;;;;;;;5.22;2.30;;;14.30;99.90;;;13.51;100.00;97506.84;5032611;28;20392;-74
2023/03/29 10:28:44;;;;;;;10.77;2.05;;;14.10;98.80;;;13.42;100.00;97495.16;5070890;28;20809;-73
2023/03/29 10:31:21;;;;;;;5.40;2.00;;;14.10;96.10;;;13.54;100.00;97491.16;5072466;28;20994;-75